createdAt,value
2023-02-06T20:07:15.731Z,1.80
2023-02-06T20:12:14.199Z,1.90
2023-02-06T20:14:42.310Z,1.80
2023-02-06T20:17:10.419Z,1.80
2023-02-06T20:47:05.802Z,1.50
2023-02-06T20:49:36.317Z,1.50
2023-02-06T20:52:04.508Z,1.50
2023-02-06T20:54:32.690Z,1.50
2023-02-06T20:57:01.280Z,1.50
2023-02-06T20:59:30.826Z,1.60
2023-02-06T21:01:58.949Z,1.60
2023-02-06T21:04:27.231Z,1.50
2023-02-06T21:06:55.526Z,2.50
2023-02-06T21:09:23.754Z,1.80
2023-02-06T21:11:51.988Z,1.60
2023-02-06T21:14:20.857Z,1.60
2023-02-06T21:16:50.934Z,1.20
2023-02-06T21:19:21.329Z,1.60
2023-02-06T21:21:50.173Z,1.60
2023-02-06T21:24:18.895Z,1.60
2023-02-06T21:26:47.131Z,1.60
2023-02-06T21:29:16.369Z,1.60
2023-02-06T21:31:44.806Z,1.70
2023-02-06T21:34:18.420Z,1.70
2023-02-06T21:36:46.948Z,1.70
2023-02-06T22:54:22.336Z,1.00
2023-02-06T22:56:50.456Z,0.90
2023-02-06T22:59:20.549Z,1.80
2023-02-06T23:01:50.611Z,1.50
2023-02-06T23:04:21.067Z,0.90
2023-02-06T23:06:51.529Z,1.00
2023-02-06T23:09:23.292Z,1.20
2023-02-06T23:11:52.220Z,1.40
2023-02-06T23:14:21.028Z,0.70
2023-02-06T23:16:49.283Z,0.80
2023-02-06T23:19:19.460Z,0.40
2023-02-06T23:21:52.262Z,0.60
2023-02-06T23:24:21.356Z,1.10
2023-02-06T23:26:50.770Z,0.50
2023-02-06T23:29:20.370Z,0.60
2023-02-06T23:31:49.362Z,0.50
2023-02-06T23:34:18.666Z,0.60
2023-02-06T23:36:47.599Z,0.30
2023-02-06T23:39:17.433Z,0.30
2023-02-06T23:41:45.607Z,0.10
2023-02-06T23:44:13.798Z,0.40
2023-02-06T23:46:55.198Z,0.10
2023-02-06T23:49:23.342Z,0.10
2023-02-06T23:51:51.541Z,0.20
2023-02-06T23:54:19.608Z,0.60
2023-02-06T23:56:47.760Z,-0.20
2023-02-06T23:59:15.876Z,-0.10
